Time;durP1;ratioP1;P1;durP2;ratioP2;P2;SDS_P1;SDS_P2;PMS_P1;PMS_P2;Temp;Humidity;BMP_temperature;BMP_pressure;BME280_temperature;BME280_humidity;BME280_pressure;Samples;Min_cycle;Max_cycle;Signal;HPM_P1;HPM_P2
2021/04/15 00:00:45;;;;;;;3.83;2.50;;;3.00;99.90;;;;;;5051572;28;20484;-66
2021/04/15 00:03:23;;;;;;;2.77;2.30;;;2.90;99.90;;;;;;5049346;28;20512;-70
2021/04/15 00:05:49;;;;;;;3.57;2.50;;;2.90;99.90;;;;;;5049584;28;20530;-67
2021/04/15 00:08:16;;;;;;;3.13;2.70;;;2.80;99.90;;;;;;5048028;28;20425;-66
2021/04/15 00:10:49;;;;;;;3.40;2.47;;;2.70;99.90;;;;;;5050589;28;20457;-68
2021/04/15 00:13:14;;;;;;;3.97;2.60;;;2.80;99.90;;;;;;5048288;28;20428;-66
2021/04/15 00:15:40;;;;;;;2.50;2.30;;;2.70;99.90;;;;;;5049330;28;20852;-69
2021/04/15 00:18:06;;;;;;;4.53;2.53;;;2.80;99.90;;;;;;5050272;28;20206;-67
2021/04/15 00:20:32;;;;;;;3.80;2.50;;;2.90;99.90;;;;;;5047981;28;20414;-69
2021/04/15 00:22:57;;;;;;;2.63;2.37;;;2.90;99.90;;;;;;5050514;28;20530;-68
2021/04/15 00:25:24;;;;;;;4.77;2.70;;;3.10;99.90;;;;;;5050710;28;20186;-66
2021/04/15 00:27:49;;;;;;;3.50;2.30;;;3.20;99.90;;;;;;5047906;28;20171;-65
2021/04/15 00:30:16;;;;;;;4.47;2.33;;;3.30;99.90;;;;;;5044042;28;20418;-65
2021/04/15 00:32:42;;;;;;;4.83;2.40;;;3.50;99.90;;;;;;5046131;28;20171;-65
2021/04/15 00:35:09;;;;;;;4.10;2.50;;;3.50;99.90;;;;;;5046053;28;20448;-69
2021/04/15 00:37:34;;;;;;;4.23;1.93;;;3.50;99.90;;;;;;5047737;28;20660;-69
2021/04/15 00:40:00;;;;;;;4.10;1.87;;;3.60;99.90;;;;;;5049579;28;20418;-68
2021/04/15 00:42:26;;;;;;;3.13;1.90;;;3.70;99.90;;;;;;5044142;28;20190;-66
2021/04/15 00:44:54;;;;;;;3.33;2.30;;;3.70;99.90;;;;;;5044248;28;20175;-69
2021/04/15 00:47:27;;;;;;;2.53;1.80;;;3.70;99.90;;;;;;5048215;28;20442;-68
2021/04/15 00:49:58;;;;;;;2.13;1.80;;;3.70;99.90;;;;;;5050463;28;20429;-67
2021/04/15 00:52:28;;;;;;;3.90;1.80;;;3.60;99.90;;;;;;5049023;28;20950;-70
2021/04/15 00:55:00;;;;;;;3.13;1.60;;;3.60;99.90;;;;;;5050560;28;20974;-68
2021/04/15 00:57:32;;;;;;;3.63;1.70;;;3.80;99.90;;;;;;5048914;28;20919;-66
2021/04/15 00:59:58;;;;;;;2.73;1.63;;;3.90;99.90;;;;;;5046026;28;20453;-66
2021/04/15 01:02:28;;;;;;;6.87;1.97;;;3.90;99.90;;;;;;5046081;28;20413;-67
2021/04/15 01:04:59;;;;;;;2.07;1.70;;;4.00;99.90;;;;;;5050252;28;20435;-67
2021/04/15 01:07:26;;;;;;;4.47;2.03;;;4.10;99.90;;;;;;5047228;28;20405;-67
2021/04/15 01:09:53;;;;;;;3.93;1.90;;;4.10;99.90;;;;;;5047476;28;20425;-65
2021/04/15 01:12:23;;;;;;;3.47;2.10;;;4.10;99.90;;;;;;5048799;28;20801;-67
2021/04/15 01:14:57;;;;;;;4.37;2.10;;;4.10;99.90;;;;;;5030759;28;20429;-66
2021/04/15 01:17:49;;;;;;;2.37;1.83;;;4.10;99.90;;;;;;5047908;28;20483;-68
2021/04/15 01:20:15;;;;;;;1.80;1.67;;;4.20;99.90;;;;;;5046309;28;20430;-65
2021/04/15 01:23:01;;;;;;;3.63;1.83;;;4.10;99.90;;;;;;5048684;28;20422;-67
2021/04/15 01:25:43;;;;;;;2.27;1.90;;;4.20;99.90;;;;;;5019954;28;20183;-69
2021/04/15 01:28:20;;;;;;;2.53;2.10;;;4.20;99.90;;;;;;5047093;28;20418;-68
2021/04/15 01:30:57;;;;;;;3.23;2.10;;;4.20;99.90;;;;;;5050059;28;20457;-68
2021/04/15 01:33:31;;;;;;;3.23;2.13;;;4.30;99.90;;;;;;5027997;28;20440;-66
2021/04/15 01:36:05;;;;;;;3.00;2.00;;;4.30;99.90;;;;;;5047268;28;21468;-67
2021/04/15 01:38:38;;;;;;;3.97;2.00;;;4.30;99.90;;;;;;5047878;28;20413;-67
2021/04/15 01:41:27;;;;;;;3.07;2.07;;;4.40;99.90;;;;;;5048098;28;20414;-65
2021/04/15 01:44:02;;;;;;;2.73;1.93;;;4.40;99.90;;;;;;5024007;28;20445;-69
2021/04/15 01:46:31;;;;;;;3.37;2.43;;;4.40;99.90;;;;;;5050645;28;21048;-66
2021/04/15 01:48:59;;;;;;;5.37;3.00;;;4.40;99.90;;;;;;5050689;28;20414;-67
2021/04/15 01:51:30;;;;;;;2.67;2.30;;;4.40;99.90;;;;;;5052073;28;20453;-67
2021/04/15 01:54:09;;;;;;;3.17;2.33;;;4.40;99.90;;;;;;5032447;28;20491;-67
2021/04/15 01:56:50;;;;;;;5.57;2.40;;;4.40;99.90;;;;;;5050615;28;20610;-69
2021/04/15 01:59:40;;;;;;;5.23;2.30;;;4.40;99.90;;;;;;5052197;28;20751;-67
2021/04/15 02:02:22;;;;;;;7.60;2.73;;;4.40;99.90;;;;;;5050620;28;20430;-68
2021/04/15 02:05:06;;;;;;;3.20;2.30;;;4.30;99.90;;;;;;5052066;28;20417;-67
2021/04/15 02:07:37;;;;;;;3.87;2.50;;;4.40;99.90;;;;;;5050198;28;20421;-67
2021/04/15 02:10:07;;;;;;;2.63;2.30;;;4.30;99.90;;;;;;5043438;28;20417;-65
2021/04/15 02:12:36;;;;;;;3.83;2.17;;;4.30;99.90;;;;;;5049272;28;20419;-65
2021/04/15 02:15:16;;;;;;;3.23;2.30;;;4.30;99.90;;;;;;5053235;28;20554;-67
2021/04/15 02:17:42;;;;;;;2.63;2.23;;;4.30;99.90;;;;;;5051079;28;20445;-67
2021/04/15 02:20:19;;;;;;;4.13;2.77;;;4.30;99.90;;;;;;5051682;28;20517;-66
2021/04/15 02:23:06;;;;;;;4.60;2.83;;;4.30;99.90;;;;;;5045844;28;20436;-64
2021/04/15 02:25:49;;;;;;;5.03;2.70;;;4.30;99.90;;;;;;5048347;28;20441;-65
2021/04/15 02:28:14;;;;;;;4.47;2.70;;;4.30;99.90;;;;;;5051037;28;20555;-67
2021/04/15 02:30:48;;;;;;;4.37;2.80;;;4.30;99.90;;;;;;5048427;28;20553;-67
2021/04/15 02:33:27;;;;;;;4.90;2.80;;;4.30;99.90;;;;;;5051352;28;20214;-68
2021/04/15 02:35:56;;;;;;;3.93;3.10;;;4.30;99.90;;;;;;5050315;28;20887;-65
2021/04/15 02:38:32;;;;;;;5.03;3.37;;;4.30;99.90;;;;;;5051581;28;20517;-66
2021/04/15 02:41:01;;;;;;;5.10;3.00;;;4.20;99.90;;;;;;5049739;28;20430;-69
2021/04/15 02:43:41;;;;;;;5.23;3.63;;;4.20;99.90;;;;;;5048326;28;20436;-68
2021/04/15 02:46:17;;;;;;;4.57;3.67;;;4.10;99.90;;;;;;5049468;28;20413;-67
2021/04/15 02:48:46;;;;;;;3.93;3.43;;;4.10;99.90;;;;;;5045202;28;20437;-67
2021/04/15 02:51:28;;;;;;;4.40;3.30;;;4.10;99.90;;;;;;5048759;28;20935;-67
2021/04/15 02:54:18;;;;;;;4.70;3.70;;;4.10;99.90;;;;;;5045110;28;20560;-68
2021/04/15 02:56:55;;;;;;;7.87;4.43;;;4.20;99.90;;;;;;5047242;28;20418;-66
2021/04/15 02:59:31;;;;;;;5.57;3.83;;;4.10;99.90;;;;;;5046743;28;20847;-66
2021/04/15 03:02:06;;;;;;;4.33;3.70;;;4.10;99.90;;;;;;5047668;28;20509;-67
2021/04/15 03:04:34;;;;;;;7.53;3.90;;;4.10;99.90;;;;;;5049553;28;21624;-68
2021/04/15 03:07:02;;;;;;;5.07;4.00;;;4.00;99.90;;;;;;5047756;28;20504;-68
2021/04/15 03:09:32;;;;;;;6.53;4.50;;;4.00;99.90;;;;;;5049113;28;20413;-67
2021/04/15 03:12:09;;;;;;;7.47;4.07;;;4.00;99.90;;;;;;5047027;28;20839;-67
2021/04/15 03:14:45;;;;;;;5.70;4.07;;;3.90;99.90;;;;;;5046620;28;20428;-68
2021/04/15 03:17:12;;;;;;;9.57;4.10;;;4.00;99.90;;;;;;5047237;28;20468;-67
2021/04/15 03:19:46;;;;;;;6.90;4.30;;;3.90;99.90;;;;;;5047686;28;20846;-66
2021/04/15 03:22:22;;;;;;;6.60;4.10;;;3.80;99.90;;;;;;5048922;28;20422;-67
2021/04/15 03:24:53;;;;;;;7.63;4.70;;;3.80;99.90;;;;;;5051978;28;20804;-68
2021/04/15 03:27:39;;;;;;;5.77;4.57;;;3.70;99.90;;;;;;5048475;28;20919;-65
2021/04/15 03:30:32;;;;;;;7.03;4.17;;;3.70;99.90;;;;;;5050324;28;20457;-67
2021/04/15 03:33:12;;;;;;;7.13;4.57;;;3.60;99.90;;;;;;5046961;28;20417;-67
2021/04/15 03:36:14;;;;;;;7.03;4.67;;;3.60;99.90;;;;;;5048736;28;20889;-68
2021/04/15 03:38:51;;;;;;;4.77;4.33;;;3.70;99.90;;;;;;5041369;28;20428;-67
2021/04/15 03:41:23;;;;;;;5.77;4.57;;;3.70;99.90;;;;;;5032557;28;20405;-69
2021/04/15 03:43:59;;;;;;;7.47;5.00;;;3.70;99.90;;;;;;5047734;28;20414;-67
2021/04/15 03:46:34;;;;;;;5.70;4.80;;;3.70;99.90;;;;;;5049729;28;20413;-65
2021/04/15 03:49:23;;;;;;;6.57;4.90;;;3.70;99.90;;;;;;5048410;28;20412;-66
2021/04/15 03:51:55;;;;;;;5.50;4.83;;;3.70;99.90;;;;;;5050705;28;20939;-68
2021/04/15 03:54:26;;;;;;;7.30;4.93;;;3.70;99.90;;;;;;5046945;28;20414;-68
2021/04/15 03:56:56;;;;;;;7.80;4.77;;;3.60;99.90;;;;;;5049873;28;20457;-66
2021/04/15 03:59:41;;;;;;;6.87;4.97;;;3.60;99.90;;;;;;5047035;28;20419;-67
2021/04/15 04:02:14;;;;;;;6.00;4.87;;;3.60;99.90;;;;;;5048825;28;20445;-65
2021/04/15 04:04:52;;;;;;;8.73;4.90;;;3.60;99.90;;;;;;5047201;28;20420;-68
2021/04/15 04:07:30;;;;;;;7.87;4.90;;;3.60;99.90;;;;;;5033123;28;20426;-65
2021/04/15 04:10:27;;;;;;;5.93;5.07;;;3.60;99.90;;;;;;5046625;28;20421;-67
2021/04/15 04:13:24;;;;;;;7.30;5.13;;;3.60;99.90;;;;;;5046315;28;20923;-66
2021/04/15 04:16:14;;;;;;;9.93;4.97;;;3.60;99.90;;;;;;5050899;28;20414;-66
2021/04/15 04:19:18;;;;;;;5.83;5.23;;;3.60;99.90;;;;;;5048186;28;20457;-65
2021/04/15 04:21:53;;;;;;;7.00;5.60;;;3.60;99.90;;;;;;5045333;28;20764;-68
2021/04/15 04:24:44;;;;;;;8.03;5.30;;;3.50;99.90;;;;;;5048300;28;20507;-67
2021/04/15 04:27:37;;;;;;;7.73;5.53;;;3.50;99.90;;;;;;5045681;28;20493;-70
2021/04/15 04:30:13;;;;;;;6.07;4.90;;;3.40;99.90;;;;;;5045526;28;20405;-67
2021/04/15 04:32:40;;;;;;;6.87;4.87;;;3.40;99.90;;;;;;5050620;28;20828;-66
2021/04/15 04:35:09;;;;;;;6.27;4.30;;;3.20;99.90;;;;;;5050323;28;20495;-67
2021/04/15 04:37:44;;;;;;;5.57;4.17;;;3.00;99.90;;;;;;5046234;28;20915;-68
2021/04/15 04:40:38;;;;;;;5.97;3.90;;;2.80;99.90;;;;;;5047153;28;20958;-70
2021/04/15 04:43:25;;;;;;;7.70;4.30;;;2.60;99.90;;;;;;5036250;28;20445;-68
2021/04/15 04:46:01;;;;;;;7.23;4.63;;;2.50;99.90;;;;;;5049247;28;20416;-69
2021/04/15 04:48:51;;;;;;;7.70;4.67;;;2.40;99.90;;;;;;5049275;28;20409;-66
2021/04/15 04:51:18;;;;;;;8.17;4.47;;;2.30;99.90;;;;;;5047403;28;20923;-66
2021/04/15 04:53:48;;;;;;;8.33;5.13;;;2.40;99.90;;;;;;5047570;28;20423;-68
2021/04/15 04:56:54;;;;;;;8.27;5.47;;;2.40;99.90;;;;;;5047178;28;20480;-68
2021/04/15 04:59:29;;;;;;;7.77;5.50;;;2.40;99.90;;;;;;5012182;28;20425;-68
2021/04/15 05:01:55;;;;;;;6.27;5.33;;;2.40;99.90;;;;;;5050444;28;20903;-67
2021/04/15 05:04:23;;;;;;;9.10;6.33;;;2.60;99.90;;;;;;5047742;28;20429;-67
2021/04/15 05:06:49;;;;;;;8.50;5.63;;;2.60;99.90;;;;;;5048989;28;20175;-70
2021/04/15 05:09:38;;;;;;;13.33;6.20;;;2.70;99.90;;;;;;5050413;28;20444;-65
2021/04/15 05:12:12;;;;;;;8.37;6.17;;;2.70;99.90;;;;;;5047219;28;20449;-65
2021/04/15 05:14:39;;;;;;;6.93;5.63;;;2.70;99.90;;;;;;5049961;28;20458;-67
2021/04/15 05:17:23;;;;;;;11.10;6.47;;;2.70;99.90;;;;;;5053043;28;20456;-68
2021/04/15 05:19:49;;;;;;;11.60;6.57;;;2.70;99.90;;;;;;5053882;28;20480;-65
2021/04/15 05:22:32;;;;;;;9.07;6.70;;;2.70;99.90;;;;;;5054052;28;20539;-66
2021/04/15 05:25:10;;;;;;;11.63;7.43;;;2.80;99.90;;;;;;5053904;28;20471;-66
2021/04/15 05:27:38;;;;;;;9.13;6.40;;;2.90;99.90;;;;;;5053726;28;20449;-66
2021/04/15 05:30:06;;;;;;;9.83;6.60;;;2.90;99.90;;;;;;5053793;28;20508;-67
2021/04/15 05:32:32;;;;;;;10.47;6.83;;;2.90;99.90;;;;;;5053447;28;20868;-66
2021/04/15 05:34:59;;;;;;;10.87;6.47;;;3.00;99.90;;;;;;5050384;28;20892;-66
2021/04/15 05:37:28;;;;;;;12.97;7.10;;;3.10;99.90;;;;;;5053579;28;20825;-65
2021/04/15 05:40:00;;;;;;;12.83;8.13;;;3.30;99.90;;;;;;5048148;28;20405;-66
2021/04/15 05:42:32;;;;;;;12.80;8.33;;;3.40;99.90;;;;;;5050461;28;20414;-66
2021/04/15 05:45:13;;;;;;;10.60;7.10;;;3.50;99.90;;;;;;5053225;28;20424;-67
2021/04/15 05:47:59;;;;;;;9.67;6.73;;;3.70;99.90;;;;;;5051806;28;20418;-64
2021/04/15 05:50:32;;;;;;;8.53;7.13;;;3.80;99.90;;;;;;5052856;28;20432;-64
2021/04/15 05:53:09;;;;;;;7.53;6.57;;;4.00;99.90;;;;;;5052753;28;20488;-65
2021/04/15 05:55:42;;;;;;;8.27;6.97;;;4.10;99.90;;;;;;5053073;28;20479;-65
2021/04/15 05:58:18;;;;;;;8.53;6.90;;;4.20;99.90;;;;;;5053157;28;20480;-65
2021/04/15 06:00:56;;;;;;;9.47;6.87;;;4.40;99.90;;;;;;5047701;28;20425;-67
2021/04/15 06:03:24;;;;;;;10.47;6.80;;;4.50;99.90;;;;;;5046827;28;20457;-66
2021/04/15 06:06:04;;;;;;;8.10;6.60;;;4.50;99.90;;;;;;5053251;28;20418;-66
2021/04/15 06:08:34;;;;;;;7.90;6.50;;;4.60;99.90;;;;;;5052867;28;20970;-67
2021/04/15 06:11:37;;;;;;;9.10;6.17;;;4.70;99.90;;;;;;5053296;28;20944;-66
2021/04/15 06:14:23;;;;;;;8.10;6.40;;;4.80;99.90;;;;;;5053186;28;20440;-66
2021/04/15 06:17:17;;;;;;;11.33;6.80;;;4.90;99.90;;;;;;5054065;28;20456;-66
2021/04/15 06:19:48;;;;;;;9.33;7.13;;;4.90;99.90;;;;;;5036812;28;20432;-66
2021/04/15 06:22:18;;;;;;;9.97;6.57;;;5.00;99.90;;;;;;5052951;28;20479;-69
2021/04/15 06:24:49;;;;;;;9.43;6.70;;;4.90;99.90;;;;;;5053069;28;20433;-69
2021/04/15 06:27:15;;;;;;;8.63;6.40;;;5.00;99.90;;;;;;5034027;28;20429;-69
2021/04/15 06:30:07;;;;;;;10.20;6.53;;;5.00;99.90;;;;;;5052458;28;20413;-68
2021/04/15 06:32:48;;;;;;;7.20;6.07;;;5.00;99.90;;;;;;5051892;28;20476;-68
2021/04/15 06:35:26;;;;;;;7.23;6.40;;;5.10;99.90;;;;;;5050684;28;21022;-66
2021/04/15 06:38:18;;;;;;;8.27;6.63;;;5.20;99.90;;;;;;5053008;28;20405;-69
2021/04/15 06:41:22;;;;;;;6.87;6.27;;;5.20;99.90;;;;;;5036900;28;20425;-66
2021/04/15 06:43:50;;;;;;;8.07;5.67;;;5.30;99.90;;;;;;5050714;28;20420;-67
2021/04/15 06:46:50;;;;;;;6.70;5.70;;;5.40;99.90;;;;;;5044311;28;20413;-69
2021/04/15 06:49:53;;;;;;;8.57;6.37;;;5.40;99.90;;;;;;5050986;28;20421;-67
2021/04/15 06:52:53;;;;;;;9.00;6.00;;;5.50;99.90;;;;;;5050686;28;20464;-68
2021/04/15 06:55:22;;;;;;;6.80;6.00;;;5.60;99.90;;;;;;5049522;28;20764;-66
2021/04/15 06:58:13;;;;;;;9.40;6.73;;;5.70;99.90;;;;;;5052411;28;20495;-67
2021/04/15 07:00:53;;;;;;;7.70;6.23;;;5.80;99.90;;;;;;5005105;28;20425;-69
2021/04/15 07:03:34;;;;;;;7.87;6.10;;;5.90;99.90;;;;;;5050887;28;20518;-68
2021/04/15 07:06:44;;;;;;;7.30;5.43;;;6.00;99.90;;;;;;5045855;28;20436;-68
2021/04/15 07:09:28;;;;;;;9.70;6.03;;;6.10;99.90;;;;;;5029864;28;20429;-67
2021/04/15 07:12:33;;;;;;;7.43;6.47;;;6.20;99.90;;;;;;5052181;28;20473;-66
2021/04/15 07:15:24;;;;;;;9.33;6.00;;;6.20;99.90;;;;;;5033902;28;20441;-66
2021/04/15 07:18:17;;;;;;;9.50;6.57;;;6.30;99.30;;;;;;5050306;28;20456;-68
2021/04/15 07:21:03;;;;;;;6.80;6.10;;;6.30;98.20;;;;;;5051814;28;20413;-69
2021/04/15 07:24:00;;;;;;;15.33;6.70;;;6.20;99.70;;;;;;5051742;28;20408;-68
2021/04/15 07:26:54;;;;;;;7.17;5.67;;;6.20;98.50;;;;;;5051789;28;20925;-68
2021/04/15 07:29:44;;;;;;;9.57;6.70;;;6.40;99.20;;;;;;5051764;28;20958;-67
2021/04/15 07:32:47;;;;;;;9.90;6.50;;;6.40;98.40;;;;;;5017048;28;20454;-67
2021/04/15 07:35:24;;;;;;;7.97;6.30;;;6.50;98.50;;;;;;5048780;28;20884;-68
2021/04/15 07:38:40;;;;;;;7.37;5.70;;;6.60;98.60;;;;;;5047339;28;21356;-67
2021/04/15 07:41:14;;;;;;;7.30;6.33;;;6.70;95.70;;;;;;5009315;28;20417;-68
2021/04/15 07:44:13;;;;;;;7.30;5.80;;;6.60;96.50;;;;;;5048566;28;20409;-68
2021/04/15 07:46:50;;;;;;;6.83;6.07;;;6.70;98.10;;;;;;5051267;28;20416;-67
2021/04/15 07:49:49;;;;;;;9.67;6.33;;;6.80;97.20;;;;;;5051121;28;20418;-67
2021/04/15 07:52:36;;;;;;;7.73;6.30;;;6.90;96.10;;;;;;5051314;28;20832;-68
2021/04/15 07:55:08;;;;;;;6.63;6.03;;;7.00;96.50;;;;;;5051362;28;20405;-68
2021/04/15 07:57:58;;;;;;;8.53;6.17;;;7.10;96.50;;;;;;5047599;28;20409;-68
2021/04/15 08:00:42;;;;;;;8.60;6.23;;;7.20;95.40;;;;;;5047810;28;20534;-71
2021/04/15 08:03:26;;;;;;;6.33;5.70;;;7.30;95.00;;;;;;5050876;28;20471;-66
2021/04/15 08:06:08;;;;;;;7.43;6.03;;;7.30;94.20;;;;;;5050630;28;20412;-68
2021/04/15 08:08:55;;;;;;;6.83;5.93;;;7.30;94.40;;;;;;5047851;28;20405;-68
2021/04/15 08:11:23;;;;;;;7.30;6.60;;;7.40;93.80;;;;;;5050888;28;20463;-66
2021/04/15 08:14:29;;;;;;;7.70;6.43;;;7.40;93.60;;;;;;5050755;28;20827;-67
2021/04/15 08:17:07;;;;;;;8.13;5.63;;;7.50;93.60;;;;;;5049921;28;20414;-67
2021/04/15 08:19:51;;;;;;;6.43;5.90;;;7.60;94.30;;;;;;5030817;28;20406;-68
2021/04/15 08:22:44;;;;;;;9.10;6.40;;;7.80;92.70;;;;;;5022757;28;20410;-66
2021/04/15 08:25:26;;;;;;;8.83;6.07;;;7.80;92.60;;;;;;5011905;28;20428;-68
2021/04/15 08:27:52;;;;;;;9.47;6.60;;;7.90;91.30;;;;;;5024755;28;20418;-68
2021/04/15 08:30:27;;;;;;;7.63;5.97;;;7.90;92.20;;;;;;5030728;28;20880;-66
2021/04/15 08:33:50;;;;;;;6.40;5.70;;;7.80;91.80;;;;;;5021401;28;20183;-68
2021/04/15 08:36:52;;;;;;;8.07;5.57;;;7.90;91.40;;;;;;4953573;28;20429;-68
2021/04/15 08:39:33;;;;;;;10.20;5.80;;;8.00;91.10;;;;;;4967553;28;20439;-68
2021/04/15 08:42:22;;;;;;;7.13;5.17;;;8.10;90.40;;;;;;4970023;28;20463;-67
2021/04/15 08:45:23;;;;;;;6.70;4.60;;;8.20;90.30;;;;;;4969683;28;20490;-69
2021/04/15 08:47:54;;;;;;;7.30;5.57;;;8.20;88.30;;;;;;4948419;28;20425;-66
2021/04/15 08:50:49;;;;;;;6.97;6.13;;;8.20;89.20;;;;;;4970081;28;20436;-68
2021/04/15 08:53:33;;;;;;;8.47;6.23;;;8.30;90.60;;;;;;4973624;28;20425;-68
2021/04/15 08:56:09;;;;;;;8.40;6.07;;;8.40;88.20;;;;;;4973690;28;20496;-66
2021/04/15 08:58:49;;;;;;;10.13;6.63;;;8.60;87.40;;;;;;4973187;28;20420;-65
2021/04/15 09:01:31;;;;;;;8.67;6.23;;;8.70;86.80;;;;;;4973810;28;20479;-69
2021/04/15 09:04:01;;;;;;;7.27;5.63;;;8.60;86.60;;;;;;4973651;28;20449;-66
2021/04/15 09:06:41;;;;;;;7.07;5.90;;;8.60;85.50;;;;;;4989292;28;20518;-67
2021/04/15 09:09:20;;;;;;;5.80;5.10;;;8.70;86.60;;;;;;5032674;28;20422;-67
2021/04/15 09:12:18;;;;;;;7.53;5.97;;;8.80;82.40;;;;;;5015863;28;20490;-67
2021/04/15 09:15:06;;;;;;;6.03;5.20;;;8.70;82.50;;;;;;5034377;28;20927;-68
2021/04/15 09:17:47;;;;;;;7.70;5.63;;;8.90;84.20;;;;;;5028408;28;20479;-68
2021/04/15 09:20:35;;;;;;;9.67;5.27;;;9.10;82.40;;;;;;5052670;28;20750;-68
2021/04/15 09:23:30;;;;;;;6.57;5.37;;;9.30;78.60;;;;;;5051329;28;20421;-67
2021/04/15 09:25:55;;;;;;;6.23;5.10;;;9.40;76.50;;;;;;5054162;28;20491;-67
2021/04/15 09:28:40;;;;;;;10.37;7.33;;;9.40;78.00;;;;;;5051797;28;20417;-69
2021/04/15 09:31:07;;;;;;;7.27;5.97;;;9.30;78.60;;;;;;5051783;28;20285;-67
2021/04/15 09:34:02;;;;;;;5.70;5.10;;;9.30;77.30;;;;;;5052402;28;20416;-68
2021/04/15 09:36:59;;;;;;;6.60;4.93;;;9.30;77.60;;;;;;5053234;28;20491;-69
2021/04/15 09:39:43;;;;;;;5.57;4.67;;;9.50;76.40;;;;;;5053595;28;20892;-69
2021/04/15 09:42:37;;;;;;;4.93;4.40;;;9.80;73.30;;;;;;5054283;28;20507;-65
2021/04/15 09:45:06;;;;;;;9.20;4.07;;;10.10;69.70;;;;;;5035980;28;20506;-66
2021/04/15 09:47:38;;;;;;;8.73;4.33;;;10.10;67.10;;;;;;5052252;28;20413;-65
2021/04/15 09:50:22;;;;;;;5.73;3.37;;;10.00;67.10;;;;;;5054243;28;20466;-67
2021/04/15 09:53:10;;;;;;;4.30;3.70;;;10.10;66.00;;;;;;5053724;28;20851;-66
2021/04/15 09:56:09;;;;;;;5.33;4.10;;;10.10;63.30;;;;;;5052281;28;20824;-70
2021/04/15 09:59:22;;;;;;;6.83;3.97;;;9.90;65.10;;;;;;5052381;28;20417;-67
2021/04/15 10:01:57;;;;;;;4.47;4.07;;;9.70;65.60;;;;;;4953086;28;20421;-69
2021/04/15 10:04:34;;;;;;;9.90;4.50;;;9.80;67.90;;;;;;4953839;29;21068;-67
2021/04/15 10:07:16;;;;;;;8.53;4.03;;;9.80;65.70;;;;;;4997222;28;20772;-68
2021/04/15 10:10:06;;;;;;;8.90;4.17;;;10.00;67.10;;;;;;5051058;28;20206;-66
2021/04/15 10:12:49;;;;;;;4.70;4.27;;;10.10;64.10;;;;;;5048757;28;20452;-65
2021/04/15 10:15:30;;;;;;;5.57;4.10;;;10.00;62.80;;;;;;5047155;28;20469;-66
2021/04/15 10:18:08;;;;;;;5.00;3.80;;;10.00;62.60;;;;;;5049354;28;20448;-68
2021/04/15 10:20:40;;;;;;;7.17;4.03;;;9.90;63.70;;;;;;5051742;28;20406;-65
2021/04/15 10:23:06;;;;;;;3.93;3.63;;;9.90;65.60;;;;;;5050315;28;20433;-69
2021/04/15 10:25:38;;;;;;;7.10;3.80;;;10.10;63.20;;;;;;5052885;28;20413;-67
2021/04/15 10:28:07;;;;;;;4.43;3.73;;;10.20;59.40;;;;;;5052923;28;20583;-66
2021/04/15 10:30:59;;;;;;;4.63;3.67;;;10.40;59.80;;;;;;5051520;28;20751;-66
2021/04/15 10:34:02;;;;;;;6.13;3.57;;;10.60;58.30;;;;;;5052884;28;20798;-67
2021/04/15 10:36:50;;;;;;;7.00;3.37;;;10.40;57.30;;;;;;5052696;28;20840;-67
2021/04/15 10:39:21;;;;;;;3.67;3.27;;;10.70;58.40;;;;;;5049721;28;20416;-67
2021/04/15 10:42:06;;;;;;;4.33;3.90;;;10.80;56.90;;;;;;5048934;28;20304;-67
2021/04/15 10:44:40;;;;;;;6.10;3.53;;;11.00;55.70;;;;;;5052669;28;20194;-67
2021/04/15 10:47:12;;;;;;;4.13;3.73;;;11.20;56.30;;;;;;5052690;28;20186;-66
2021/04/15 10:49:44;;;;;;;4.47;3.70;;;11.20;55.40;;;;;;5050937;28;20190;-66
2021/04/15 10:52:42;;;;;;;5.17;3.67;;;11.40;56.30;;;;;;5052678;28;20199;-68
2021/04/15 10:55:33;;;;;;;4.87;3.70;;;11.50;54.30;;;;;;5049640;28;20167;-66
2021/04/15 10:58:38;;;;;;;5.70;3.87;;;11.60;52.80;;;;;;5049553;28;20168;-67
2021/04/15 11:01:28;;;;;;;6.60;3.63;;;11.60;53.30;;;;;;5052312;28;20256;-67
2021/04/15 11:04:19;;;;;;;6.33;3.93;;;11.30;52.50;;;;;;5052382;28;20667;-66
2021/04/15 11:06:48;;;;;;;3.97;3.30;;;11.10;51.90;;;;;;5052260;28;20621;-67
2021/04/15 11:09:39;;;;;;;4.23;3.73;;;11.30;52.50;;;;;;5052151;28;20589;-68
2021/04/15 11:12:14;;;;;;;4.57;3.83;;;11.40;50.10;;;;;;5052153;28;20187;-66
2021/04/15 11:14:53;;;;;;;5.07;3.53;;;11.40;52.70;;;;;;5051806;28;20167;-69
2021/04/15 11:17:26;;;;;;;6.67;4.10;;;11.30;52.50;;;;;;5053020;28;20270;-67
2021/04/15 11:20:23;;;;;;;5.03;3.83;;;11.10;53.20;;;;;;5021320;28;20314;-67
2021/04/15 11:22:56;;;;;;;4.30;3.60;;;11.30;52.30;;;;;;5011906;28;20547;-65
2021/04/15 11:25:54;;;;;;;7.83;4.00;;;11.30;50.90;;;;;;5011717;28;20195;-64
2021/04/15 11:28:23;;;;;;;4.27;3.87;;;11.40;51.90;;;;;;5007262;28;20622;-67
2021/04/15 11:30:55;;;;;;;6.17;4.00;;;11.40;52.90;;;;;;5028940;28;20290;-67
2021/04/15 11:33:37;;;;;;;4.57;3.60;;;11.40;54.00;;;;;;5028516;28;20309;-66
2021/04/15 11:36:27;;;;;;;4.27;3.63;;;11.40;52.70;;;;;;5023080;28;20553;-64
2021/04/15 11:39:05;;;;;;;5.07;3.83;;;11.30;52.30;;;;;;5019775;28;20168;-66
2021/04/15 11:41:45;;;;;;;6.47;4.30;;;11.40;52.60;;;;;;5031702;28;20222;-67
2021/04/15 11:44:22;;;;;;;4.37;3.97;;;11.30;50.80;;;;;;5019433;28;20202;-67
2021/04/15 11:46:48;;;;;;;5.73;4.10;;;11.20;53.50;;;;;;5012055;28;20180;-67
2021/04/15 11:49:26;;;;;;;5.17;4.13;;;11.20;55.10;;;;;;5015692;28;20229;-68
2021/04/15 11:52:16;;;;;;;6.93;4.53;;;11.10;57.20;;;;;;5031802;28;20198;-66
2021/04/15 11:54:44;;;;;;;4.87;3.57;;;11.00;56.80;;;;;;5031447;28;20180;-64
2021/04/15 11:57:19;;;;;;;3.17;2.80;;;10.90;55.20;;;;;;5031282;28;20188;-66
2021/04/15 12:00:14;;;;;;;3.73;2.47;;;10.80;53.20;;;;;;5032034;28;20518;-65
2021/04/15 12:02:55;;;;;;;2.83;2.40;;;10.80;51.00;;;;;;5030250;28;20192;-67
2021/04/15 12:05:41;;;;;;;3.03;2.73;;;10.80;52.90;;;;;;5023757;28;20202;-66
2021/04/15 12:08:17;;;;;;;4.27;3.00;;;11.00;51.90;;;;;;5011784;28;21591;-66
2021/04/15 12:11:07;;;;;;;3.10;2.60;;;11.10;51.30;;;;;;5011706;28;20556;-66
2021/04/15 12:13:40;;;;;;;4.13;3.73;;;11.20;52.40;;;;;;5012930;28;20230;-67
2021/04/15 12:16:15;;;;;;;6.40;3.47;;;11.50;51.90;;;;;;5030930;28;20257;-64
2021/04/15 12:18:47;;;;;;;3.83;3.23;;;12.00;52.60;;;;;;5040359;28;20576;-69
2021/04/15 12:21:40;;;;;;;5.10;4.33;;;12.60;52.70;;;;;;5048332;28;20183;-67
2021/04/15 12:24:19;;;;;;;8.50;5.23;;;12.90;49.30;;;;;;5000208;28;20537;-66
2021/04/15 12:26:59;;;;;;;7.10;4.83;;;13.00;53.40;;;;;;5050469;28;20700;-66
2021/04/15 12:29:48;;;;;;;5.70;4.57;;;12.50;55.80;;;;;;5050968;28;20577;-67
2021/04/15 12:32:36;;;;;;;9.20;5.30;;;12.00;60.70;;;;;;5050962;28;20252;-66
2021/04/15 12:35:19;;;;;;;4.73;4.33;;;11.40;63.20;;;;;;5032888;28;20734;-65
2021/04/15 12:37:50;;;;;;;9.33;5.50;;;11.20;65.10;;;;;;5049242;28;20166;-66
2021/04/15 12:40:19;;;;;;;4.93;4.47;;;11.00;65.60;;;;;;5045491;28;20254;-66
2021/04/15 12:42:46;;;;;;;5.50;3.57;;;10.80;67.10;;;;;;5049847;28;20210;-66
2021/04/15 12:45:28;;;;;;;3.93;3.63;;;10.70;58.40;;;;;;5046119;28;20175;-67
2021/04/15 12:47:56;;;;;;;3.70;3.23;;;10.60;57.00;;;;;;5046880;28;20598;-67
2021/04/15 12:50:22;;;;;;;4.93;3.20;;;10.60;57.30;;;;;;5046347;28;20178;-67
2021/04/15 12:52:49;;;;;;;2.97;2.40;;;10.70;54.70;;;;;;5046340;28;20230;-65
2021/04/15 12:55:19;;;;;;;5.57;2.77;;;10.80;55.00;;;;;;5048731;28;20167;-67
2021/04/15 12:57:45;;;;;;;6.67;2.90;;;10.90;54.20;;;;;;5048789;28;20194;-66
2021/04/15 13:00:17;;;;;;;5.47;3.10;;;11.10;54.50;;;;;;5046046;28;20168;-67
2021/04/15 13:02:43;;;;;;;3.37;2.80;;;11.20;53.80;;;;;;5048177;28;20186;-67
2021/04/15 13:05:32;;;;;;;7.17;3.20;;;11.50;55.00;;;;;;5051007;28;20582;-67
2021/04/15 13:08:23;;;;;;;3.83;3.20;;;12.00;52.60;;;;;;5023358;28;20188;-67
2021/04/15 13:10:51;;;;;;;3.97;2.83;;;12.70;52.20;;;;;;5049279;28;20237;-67
2021/04/15 13:13:44;;;;;;;3.20;2.83;;;13.00;52.30;;;;;;5048802;28;20178;-66
2021/04/15 13:16:31;;;;;;;3.07;2.70;;;13.40;50.70;;;;;;5050103;28;20533;-65
2021/04/15 13:18:59;;;;;;;3.63;2.40;;;13.70;48.70;;;;;;5051452;28;20357;-67
2021/04/15 13:21:34;;;;;;;2.73;2.13;;;13.70;44.90;;;;;;5050522;28;20633;-68
2021/04/15 13:24:01;;;;;;;2.80;2.50;;;13.40;45.70;;;;;;5048835;28;20637;-66
2021/04/15 13:26:35;;;;;;;4.33;2.60;;;13.20;47.80;;;;;;5049499;28;20171;-66
2021/04/15 13:29:14;;;;;;;4.80;2.67;;;12.80;48.60;;;;;;5047125;28;20201;-67
2021/04/15 13:31:51;;;;;;;3.57;2.50;;;12.60;49.80;;;;;;5050629;28;20221;-65
2021/04/15 13:34:26;;;;;;;5.90;3.13;;;12.50;51.50;;;;;;5047120;28;20680;-66
2021/04/15 13:36:53;;;;;;;3.57;2.87;;;12.40;51.40;;;;;;5052067;28;21145;-69
2021/04/15 13:39:30;;;;;;;4.03;2.50;;;12.40;51.50;;;;;;5054715;28;20178;-67
2021/04/15 13:41:58;;;;;;;3.00;2.40;;;12.40;53.20;;;;;;5049186;28;20285;-66
2021/04/15 13:44:55;;;;;;;5.30;2.83;;;12.60;50.80;;;;;;5051541;28;20221;-68
2021/04/15 13:47:43;;;;;;;2.30;2.10;;;12.90;51.10;;;;;;5053111;28;20179;-67
2021/04/15 13:50:12;;;;;;;4.33;3.23;;;13.10;46.70;;;;;;5053914;28;20197;-66
2021/04/15 13:52:38;;;;;;;3.97;2.93;;;13.40;45.40;;;;;;5051928;28;20205;-68
2021/04/15 13:55:29;;;;;;;6.10;2.80;;;13.70;45.10;;;;;;5052195;28;20198;-66